createdAt,value
2018-08-30T00:00:35.118Z,22.82
2018-08-30T00:03:03.795Z,22.79
2018-08-30T00:05:32.456Z,22.76
2018-08-30T00:08:01.054Z,22.70
2018-08-30T00:10:29.783Z,22.61
2018-08-30T00:12:59.499Z,22.57
2018-08-30T00:15:28.476Z,22.61
2018-08-30T00:17:57.218Z,22.70
2018-08-30T00:20:39.505Z,22.70
2018-08-30T00:23:08.642Z,22.63
2018-08-30T00:25:37.371Z,22.56
2018-08-30T00:28:06.107Z,22.51
2018-08-30T00:30:48.327Z,22.54
2018-08-30T00:33:17.142Z,22.44
2018-08-30T00:35:46.419Z,22.36
2018-08-30T00:38:15.177Z,22.35
2018-08-30T00:40:44.074Z,22.30
2018-08-30T00:43:12.805Z,22.38
2018-08-30T00:45:41.207Z,22.39
2018-08-30T00:48:09.925Z,22.39
2018-08-30T00:50:38.504Z,22.40
2018-08-30T00:53:06.905Z,22.48
2018-08-30T00:55:35.436Z,22.60
2018-08-30T00:58:03.939Z,22.63
2018-08-30T01:03:34.610Z,22.10
2018-08-30T01:06:03.210Z,21.97
2018-08-30T01:08:32.443Z,22.01
2018-08-30T01:11:19.539Z,22.08
2018-08-30T01:13:48.850Z,22.07
2018-08-30T01:16:17.277Z,22.00
2018-08-30T01:18:45.799Z,21.89
2018-08-30T01:21:14.276Z,21.92
2018-08-30T01:23:43.195Z,21.94
2018-08-30T01:26:13.289Z,21.95
2018-08-30T01:28:41.690Z,21.91
2018-08-30T01:31:10.148Z,21.89
2018-08-30T01:33:38.734Z,22.00
2018-08-30T01:36:08.041Z,22.08
2018-08-30T01:38:36.937Z,22.23
2018-08-30T01:43:58.216Z,22.30
2018-08-30T01:46:26.811Z,22.39
2018-08-30T01:51:57.905Z,22.57
2018-08-30T01:54:26.521Z,22.46
2018-08-30T01:56:55.112Z,22.46
2018-08-30T01:59:46.252Z,22.48
2018-08-30T02:02:14.762Z,22.46
2018-08-30T02:04:43.376Z,22.38
2018-08-30T02:07:12.029Z,22.33
2018-08-30T02:09:40.539Z,22.22
2018-08-30T02:12:09.193Z,22.20
2018-08-30T02:14:37.912Z,22.07
2018-08-30T02:17:06.769Z,22.07
2018-08-30T02:19:57.968Z,22.05
2018-08-30T02:22:26.891Z,22.06
2018-08-30T02:24:55.371Z,22.08
2018-08-30T02:27:24.009Z,22.10
2018-08-30T02:29:52.555Z,22.17
2018-08-30T02:32:21.135Z,22.17
2018-08-30T02:34:50.582Z,22.16
2018-08-30T02:37:19.099Z,22.10
2018-08-30T02:39:47.641Z,22.16
2018-08-30T02:42:16.059Z,22.22
2018-08-30T02:44:44.809Z,22.23
2018-08-30T02:47:13.395Z,22.25
2018-08-30T02:49:41.983Z,22.25
2018-08-30T02:54:38.131Z,22.14
2018-08-30T02:57:06.573Z,22.14
2018-08-30T02:59:44.783Z,22.05
2018-08-30T03:02:13.227Z,22.01
2018-08-30T03:04:41.707Z,22.10
2018-08-30T03:07:10.143Z,22.10
2018-08-30T03:09:39.074Z,22.06
2018-08-30T03:12:07.589Z,21.99
2018-08-30T03:14:36.324Z,21.97
2018-08-30T03:17:05.578Z,21.95
2018-08-30T03:19:34.158Z,21.88
2018-08-30T03:22:02.866Z,21.82
2018-08-30T03:24:31.315Z,21.79
2018-08-30T03:26:59.772Z,21.86
2018-08-30T03:29:28.213Z,21.96
2018-08-30T03:31:56.763Z,22.11
2018-08-30T03:34:25.339Z,22.21
2018-08-30T03:36:53.761Z,22.15
2018-08-30T03:39:22.368Z,22.04
2018-08-30T03:41:50.818Z,22.02
2018-08-30T03:44:19.241Z,22.01
2018-08-30T03:46:47.828Z,21.98
2018-08-30T03:49:16.270Z,21.97
2018-08-30T03:51:44.769Z,21.98
2018-08-30T03:54:13.575Z,21.93
2018-08-30T03:56:41.966Z,21.94
2018-08-30T03:59:11.089Z,21.91
2018-08-30T04:01:40.278Z,21.90
2018-08-30T04:04:08.781Z,21.72
2018-08-30T04:06:37.230Z,21.47
2018-08-30T04:09:28.449Z,21.31
2018-08-30T04:11:56.887Z,21.20
2018-08-30T04:14:25.705Z,21.22
2018-08-30T04:16:54.140Z,21.13
2018-08-30T04:19:27.627Z,21.11
2018-08-30T04:21:56.218Z,21.00
2018-08-30T04:24:24.700Z,20.97
2018-08-30T04:26:53.127Z,20.87
2018-08-30T04:29:21.578Z,20.81
2018-08-30T04:31:50.044Z,20.86
2018-08-30T04:34:18.906Z,21.00
2018-08-30T04:36:47.371Z,21.01
2018-08-30T04:39:15.810Z,21.01
2018-08-30T04:41:44.279Z,21.09
2018-08-30T04:44:12.861Z,21.11
2018-08-30T04:46:41.235Z,21.09
2018-08-30T04:52:02.181Z,21.05
2018-08-30T04:54:31.074Z,21.11
2018-08-30T04:56:59.484Z,21.13
2018-08-30T05:02:21.156Z,21.13
2018-08-30T05:04:49.673Z,21.10
2018-08-30T05:07:18.162Z,21.13
2018-08-30T05:09:46.600Z,21.12
2018-08-30T05:12:15.020Z,21.17
2018-08-30T05:14:43.635Z,21.18
2018-08-30T05:17:12.167Z,21.20
2018-08-30T05:22:33.770Z,21.16
2018-08-30T05:25:02.371Z,21.17
2018-08-30T05:27:30.838Z,21.20
2018-08-30T05:32:52.514Z,21.15
2018-08-30T05:35:21.180Z,21.19
2018-08-30T05:37:49.789Z,21.26
2018-08-30T05:40:18.282Z,21.30
2018-08-30T05:42:46.708Z,21.32
2018-08-30T05:45:15.285Z,21.30
2018-08-30T05:47:43.892Z,21.25
2018-08-30T05:50:21.919Z,21.29
2018-08-30T05:52:50.719Z,21.32
2018-08-30T05:55:19.352Z,21.32
2018-08-30T05:57:47.822Z,21.32
2018-08-30T06:00:16.243Z,21.32
2018-08-30T06:02:44.748Z,21.30
2018-08-30T06:05:13.164Z,21.32
2018-08-30T06:07:41.861Z,21.37
2018-08-30T06:10:10.305Z,21.38
2018-08-30T06:12:38.951Z,21.39
2018-08-30T06:15:07.414Z,21.41
2018-08-30T06:17:35.916Z,21.40
2018-08-30T06:20:04.492Z,21.36
2018-08-30T06:22:32.910Z,21.31
2018-08-30T06:25:01.324Z,21.27
2018-08-30T06:27:30.443Z,21.17
2018-08-30T06:29:58.971Z,21.13
2018-08-30T06:32:27.466Z,21.03
2018-08-30T06:34:55.850Z,21.03
2018-08-30T06:37:24.417Z,21.00
2018-08-30T06:39:54.034Z,20.95
2018-08-30T06:42:22.468Z,20.89
2018-08-30T06:44:50.952Z,20.91
2018-08-30T06:47:19.426Z,20.90
2018-08-30T06:49:47.856Z,20.89
2018-08-30T06:52:16.228Z,20.85
2018-08-30T06:54:44.813Z,20.83
2018-08-30T06:57:24.372Z,20.80
2018-08-30T06:59:57.141Z,20.83
2018-08-30T07:02:25.656Z,20.79
2018-08-30T07:04:55.734Z,20.78
2018-08-30T07:07:25.364Z,20.80
2018-08-30T07:09:53.975Z,20.80
2018-08-30T07:12:22.698Z,20.77
2018-08-30T07:14:51.279Z,20.64
2018-08-30T07:17:22.862Z,20.56
2018-08-30T07:20:00.727Z,20.51
2018-08-30T07:22:30.571Z,20.43
2018-08-30T07:25:00.909Z,20.48
2018-08-30T07:27:34.602Z,20.56
2018-08-30T07:30:03.283Z,20.64
2018-08-30T07:32:31.714Z,20.61
2018-08-30T07:35:00.496Z,20.58
2018-08-30T07:37:28.885Z,20.47
2018-08-30T07:39:57.350Z,20.45
2018-08-30T07:42:25.837Z,20.49
2018-08-30T07:44:54.321Z,20.53
2018-08-30T07:47:23.152Z,20.53
2018-08-30T07:49:51.570Z,20.57
2018-08-30T07:52:20.012Z,20.63
2018-08-30T07:54:48.444Z,20.67
2018-08-30T07:57:16.938Z,20.69
2018-08-30T07:59:50.410Z,20.69
2018-08-30T08:02:19.022Z,20.75
2018-08-30T08:04:47.553Z,20.75
2018-08-30T08:07:16.254Z,20.83
2018-08-30T08:09:44.780Z,20.84
2018-08-30T08:12:13.364Z,20.83
2018-08-30T08:14:41.890Z,20.81
2018-08-30T08:17:10.526Z,20.73
2018-08-30T08:20:01.690Z,20.65
2018-08-30T08:22:30.293Z,20.65
2018-08-30T08:25:01.339Z,20.69
2018-08-30T08:27:29.848Z,20.71
2018-08-30T08:29:59.190Z,20.72
2018-08-30T08:32:27.776Z,20.69
2018-08-30T08:34:56.283Z,20.61
2018-08-30T08:37:26.803Z,20.52
2018-08-30T08:39:55.258Z,20.48
2018-08-30T08:42:24.986Z,20.44
2018-08-30T08:44:53.602Z,20.38
2018-08-30T08:47:22.120Z,20.40
2018-08-30T08:49:50.856Z,20.41
2018-08-30T08:52:19.419Z,20.38
2018-08-30T08:54:52.001Z,20.35
2018-08-30T08:57:20.471Z,20.33
2018-08-30T08:59:49.617Z,20.23
2018-08-30T09:02:18.174Z,20.17
2018-08-30T09:04:46.666Z,20.19
2018-08-30T09:07:15.255Z,20.30
2018-08-30T09:09:44.006Z,20.34
2018-08-30T09:12:12.453Z,20.25
2018-08-30T09:14:41.183Z,20.15
2018-08-30T09:17:09.764Z,20.07
2018-08-30T09:19:38.314Z,20.06
2018-08-30T09:22:19.220Z,19.99
2018-08-30T09:24:59.193Z,19.90
2018-08-30T09:27:27.640Z,19.84
2018-08-30T09:29:56.837Z,19.79
2018-08-30T09:32:25.995Z,19.77
2018-08-30T09:34:55.251Z,19.70
2018-08-30T09:37:24.232Z,19.69
2018-08-30T09:39:52.700Z,19.66
2018-08-30T09:42:21.167Z,19.60
2018-08-30T09:44:49.734Z,19.54
2018-08-30T09:47:18.098Z,19.46
2018-08-30T09:49:51.667Z,19.34
2018-08-30T09:52:24.688Z,19.30
2018-08-30T09:54:53.533Z,19.23
2018-08-30T09:57:22.319Z,19.22
2018-08-30T09:59:50.856Z,19.19
2018-08-30T10:02:25.686Z,19.17
2018-08-30T10:07:33.989Z,19.23
2018-08-30T10:10:12.226Z,19.22
2018-08-30T10:12:41.738Z,19.22
2018-08-30T10:15:12.430Z,19.22
2018-08-30T10:17:41.167Z,19.21
2018-08-30T10:20:09.956Z,19.28
2018-08-30T10:22:38.576Z,19.30
2018-08-30T10:25:07.563Z,19.34
2018-08-30T10:27:36.131Z,19.41
2018-08-30T10:30:05.095Z,19.47
2018-08-30T10:32:34.194Z,19.54
2018-08-30T10:35:02.704Z,19.59
2018-08-30T10:37:31.646Z,19.57
2018-08-30T10:40:00.590Z,19.56
2018-08-30T10:42:29.400Z,19.52
2018-08-30T10:44:58.153Z,19.52
2018-08-30T10:47:27.050Z,19.55
2018-08-30T10:49:56.005Z,19.61
2018-08-30T10:52:25.027Z,19.57
2018-08-30T10:54:53.547Z,19.56
2018-08-30T10:57:22.260Z,19.50
2018-08-30T11:00:00.445Z,19.43
2018-08-30T11:02:30.398Z,19.38
2018-08-30T11:05:00.295Z,19.30
2018-08-30T11:07:29.628Z,19.26
2018-08-30T11:09:59.201Z,19.24
2018-08-30T11:12:29.544Z,19.18
2018-08-30T11:14:59.819Z,19.11
2018-08-30T11:17:28.841Z,19.09
2018-08-30T11:19:57.904Z,19.06
2018-08-30T11:22:26.845Z,19.03
2018-08-30T11:24:55.287Z,18.99
2018-08-30T11:27:27.328Z,18.96
2018-08-30T11:29:56.042Z,18.90
2018-08-30T11:32:25.098Z,18.92
2018-08-30T11:34:54.888Z,18.88
2018-08-30T11:37:23.814Z,18.83
2018-08-30T11:39:57.884Z,18.81
2018-08-30T11:42:26.913Z,18.77
2018-08-30T11:44:55.651Z,18.71
2018-08-30T11:47:24.766Z,18.71
2018-08-30T11:49:54.302Z,18.71
2018-08-30T11:52:23.308Z,18.63
2018-08-30T11:54:52.460Z,18.64
2018-08-30T11:57:21.735Z,18.61
2018-08-30T12:00:00.111Z,18.58
2018-08-30T12:02:30.761Z,18.59
2018-08-30T12:04:59.924Z,18.63
2018-08-30T12:07:29.472Z,18.65
2018-08-30T12:09:59.066Z,18.66
2018-08-30T12:12:27.954Z,18.72
2018-08-30T12:14:56.658Z,18.74
2018-08-30T12:17:26.393Z,18.72
2018-08-30T12:19:55.510Z,18.73
2018-08-30T12:22:24.943Z,18.73
2018-08-30T12:24:53.454Z,18.75
2018-08-30T12:27:22.454Z,18.74
2018-08-30T12:29:56.536Z,18.72
2018-08-30T12:32:25.541Z,18.75
2018-08-30T12:34:54.397Z,18.79
2018-08-30T12:37:23.257Z,18.80
2018-08-30T12:39:52.339Z,18.82
2018-08-30T12:42:21.527Z,18.82
2018-08-30T12:44:50.368Z,18.81
2018-08-30T12:47:19.262Z,18.86
2018-08-30T12:49:57.439Z,18.83
2018-08-30T12:52:26.600Z,18.79
2018-08-30T12:54:56.083Z,18.84
2018-08-30T12:57:25.027Z,18.95
2018-08-30T12:59:54.339Z,19.01
2018-08-30T13:02:23.713Z,19.03
2018-08-30T13:04:52.760Z,19.06
2018-08-30T13:07:23.739Z,19.09
2018-08-30T13:09:57.626Z,19.11
2018-08-30T13:12:26.663Z,19.17
2018-08-30T13:14:56.704Z,19.15
2018-08-30T13:17:26.567Z,19.13
2018-08-30T13:19:55.576Z,19.13
2018-08-30T13:22:24.375Z,19.22
2018-08-30T13:24:54.208Z,19.22
2018-08-30T13:27:23.911Z,19.25
2018-08-30T13:30:06.495Z,19.26
2018-08-30T13:32:35.469Z,19.31
2018-08-30T13:35:04.704Z,19.33
2018-08-30T13:37:34.543Z,19.43
2018-08-30T13:40:05.509Z,19.48
2018-08-30T13:42:34.669Z,19.47
2018-08-30T13:45:04.494Z,19.50
2018-08-30T13:47:34.517Z,19.48
2018-08-30T13:50:04.292Z,19.47
2018-08-30T13:52:33.832Z,19.42
2018-08-30T13:55:03.115Z,19.43
2018-08-30T13:57:32.291Z,19.47
2018-08-30T14:00:03.262Z,19.47
2018-08-30T14:02:32.917Z,19.51
2018-08-30T14:05:01.788Z,19.48
2018-08-30T14:07:30.552Z,19.48
2018-08-30T14:09:59.468Z,19.49
2018-08-30T14:12:28.907Z,19.49
2018-08-30T14:14:57.805Z,19.46
2018-08-30T14:17:26.215Z,19.47
2018-08-30T14:19:57.456Z,19.48
2018-08-30T14:22:27.224Z,19.53
2018-08-30T14:24:56.293Z,19.56
2018-08-30T14:27:25.389Z,19.56
2018-08-30T14:30:00.954Z,19.58
2018-08-30T14:32:30.038Z,19.59
2018-08-30T14:34:59.183Z,19.58
2018-08-30T14:37:29.975Z,19.57
2018-08-30T14:39:59.145Z,19.61
2018-08-30T14:42:28.908Z,19.67
2018-08-30T14:44:58.108Z,19.70
2018-08-30T14:47:27.112Z,19.71
2018-08-30T14:49:56.421Z,19.83
2018-08-30T14:52:25.550Z,19.90
2018-08-30T14:54:54.764Z,19.93
2018-08-30T14:57:24.688Z,19.98
2018-08-30T14:59:54.643Z,20.03
2018-08-30T15:02:23.803Z,20.09
2018-08-30T15:04:52.671Z,20.12
2018-08-30T15:07:21.816Z,20.16
2018-08-30T15:09:51.159Z,20.21
2018-08-30T15:15:00.329Z,20.22
2018-08-30T15:17:29.603Z,20.28
2018-08-30T15:19:58.411Z,20.37
2018-08-30T15:22:26.900Z,20.43
2018-08-30T15:24:55.334Z,20.47
2018-08-30T15:27:23.742Z,20.46
2018-08-30T15:29:52.307Z,20.45
2018-08-30T15:32:20.859Z,20.39
2018-08-30T15:34:49.434Z,20.35
2018-08-30T15:37:17.842Z,20.31
2018-08-30T15:39:46.428Z,20.30
2018-08-30T15:42:15.083Z,20.26
2018-08-30T15:44:45.847Z,20.26
2018-08-30T15:47:14.408Z,20.23
2018-08-30T15:49:42.977Z,20.21
2018-08-30T15:52:11.616Z,20.13
2018-08-30T15:54:40.124Z,20.13
2018-08-30T15:57:09.582Z,20.12
2018-08-30T15:59:40.420Z,20.11
2018-08-30T16:04:54.372Z,20.00
2018-08-30T16:07:22.779Z,20.00
2018-08-30T16:09:51.393Z,19.97
2018-08-30T16:12:20.319Z,19.94
2018-08-30T16:14:48.838Z,19.92
2018-08-30T16:17:17.529Z,19.91
2018-08-30T16:19:45.976Z,19.88
2018-08-30T16:22:14.394Z,19.88
2018-08-30T16:24:42.921Z,19.86
2018-08-30T16:27:11.502Z,19.76
2018-08-30T16:29:40.017Z,19.60
2018-08-30T16:32:08.647Z,19.50
2018-08-30T16:34:37.220Z,19.41
2018-08-30T16:37:05.713Z,19.28
2018-08-30T16:39:34.294Z,19.18
2018-08-30T16:42:02.847Z,19.08
2018-08-30T16:44:31.490Z,19.01
2018-08-30T16:47:00.071Z,18.97
2018-08-30T16:49:28.449Z,18.92
2018-08-30T16:51:57.125Z,18.88
2018-08-30T16:54:25.550Z,18.88
2018-08-30T16:56:54.006Z,18.88
2018-08-30T16:59:22.612Z,18.85
2018-08-30T17:01:51.428Z,18.80
2018-08-30T17:04:19.942Z,18.76
2018-08-30T17:06:48.404Z,18.71
2018-08-30T17:09:16.866Z,18.66
2018-08-30T17:11:45.240Z,18.57
2018-08-30T17:14:13.665Z,18.54
2018-08-30T17:16:42.067Z,18.54
2018-08-30T17:19:20.950Z,18.51
2018-08-30T17:21:49.411Z,18.46
2018-08-30T17:24:17.802Z,18.48
2018-08-30T17:26:46.163Z,18.42
2018-08-30T17:29:14.919Z,18.37
2018-08-30T17:31:43.357Z,18.41
2018-08-30T17:34:11.899Z,18.41
2018-08-30T17:36:40.443Z,18.41
2018-08-30T17:39:09.883Z,18.33
2018-08-30T17:41:41.941Z,18.18
2018-08-30T17:44:11.127Z,18.04
2018-08-30T17:46:40.756Z,17.96
2018-08-30T17:49:09.962Z,17.83
2018-08-30T17:51:38.892Z,17.78
2018-08-30T17:54:07.764Z,17.68
2018-08-30T17:56:36.724Z,17.61
2018-08-30T17:59:05.648Z,17.60
2018-08-30T18:01:35.778Z,17.51
2018-08-30T18:04:04.508Z,17.45
2018-08-30T18:06:34.254Z,17.41
2018-08-30T18:09:03.357Z,17.33
2018-08-30T18:11:32.013Z,17.33
2018-08-30T18:14:00.693Z,17.29
2018-08-30T18:16:29.165Z,17.27
2018-08-30T18:18:57.644Z,17.33
2018-08-30T18:21:26.460Z,17.36
2018-08-30T18:23:55.143Z,17.32
2018-08-30T18:26:23.634Z,17.32
2018-08-30T18:28:52.023Z,17.35
2018-08-30T18:31:20.624Z,17.34
2018-08-30T18:33:49.121Z,17.34
2018-08-30T18:36:17.719Z,17.36
2018-08-30T18:38:46.206Z,17.37
2018-08-30T18:41:14.669Z,17.39
2018-08-30T18:43:43.164Z,17.39
2018-08-30T18:46:11.893Z,17.38
2018-08-30T18:48:40.409Z,17.32
2018-08-30T18:51:08.993Z,17.31
2018-08-30T18:53:37.423Z,17.33
2018-08-30T18:56:05.979Z,17.35
2018-08-30T18:58:34.467Z,17.39
2018-08-30T19:01:02.956Z,17.46
2018-08-30T19:03:31.959Z,17.50
2018-08-30T19:06:00.747Z,17.53
2018-08-30T19:08:29.560Z,17.58
2018-08-30T19:11:03.620Z,17.64
2018-08-30T19:13:32.347Z,17.64
2018-08-30T19:16:06.452Z,17.63
2018-08-30T19:18:40.297Z,17.61
2018-08-30T19:21:26.587Z,17.63
2018-08-30T19:23:55.419Z,17.61
2018-08-30T19:26:23.908Z,17.61
2018-08-30T19:28:52.491Z,17.58
2018-08-30T19:31:21.253Z,17.57
2018-08-30T19:33:49.917Z,17.52
2018-08-30T19:36:23.547Z,17.54
2018-08-30T19:38:52.365Z,17.56
2018-08-30T19:41:22.499Z,17.53
2018-08-30T19:43:52.029Z,17.49
2018-08-30T19:46:21.324Z,17.51
2018-08-30T19:48:50.063Z,17.51
2018-08-30T19:51:24.073Z,17.48
2018-08-30T19:53:53.489Z,17.50
2018-08-30T19:56:22.109Z,17.54
2018-08-30T19:58:50.678Z,17.55
2018-08-30T20:01:19.157Z,17.56
2018-08-30T20:03:47.849Z,17.53
2018-08-30T20:06:16.460Z,17.50
2018-08-30T20:08:45.666Z,17.52
2018-08-30T20:11:14.318Z,17.49
2018-08-30T20:13:42.809Z,17.45
2018-08-30T20:16:11.651Z,17.41
2018-08-30T20:18:40.233Z,17.31
2018-08-30T20:21:10.452Z,17.31
2018-08-30T20:23:39.140Z,17.26
2018-08-30T20:26:07.642Z,17.27
2018-08-30T20:28:36.336Z,17.32
2018-08-30T20:31:09.969Z,17.31
2018-08-30T20:33:38.707Z,17.31
2018-08-30T20:36:07.550Z,17.29
2018-08-30T20:38:36.120Z,17.31
2018-08-30T20:41:09.693Z,17.29
2018-08-30T20:43:38.223Z,17.29
2018-08-30T20:46:07.128Z,17.28
2018-08-30T20:48:36.180Z,17.31
2018-08-30T20:51:04.765Z,17.32
2018-08-30T20:53:33.435Z,17.32
2018-08-30T20:56:02.149Z,17.43
2018-08-30T20:58:30.591Z,17.43
2018-08-30T21:00:59.182Z,17.38
2018-08-30T21:03:27.749Z,17.34
2018-08-30T21:05:56.278Z,17.35
2018-08-30T21:08:24.821Z,17.32
2018-08-30T21:10:53.435Z,17.35
2018-08-30T21:13:21.897Z,17.32
2018-08-30T21:15:50.497Z,17.27
2018-08-30T21:18:18.961Z,17.31
2018-08-30T21:20:47.527Z,17.26
2018-08-30T21:23:16.539Z,17.27
2018-08-30T21:25:45.620Z,17.24
2018-08-30T21:28:14.340Z,17.24
2018-08-30T21:30:43.013Z,17.22
2018-08-30T21:33:12.003Z,17.26
2018-08-30T21:35:41.225Z,17.24
2018-08-30T21:38:09.885Z,17.21
2018-08-30T21:40:38.491Z,17.21
2018-08-30T21:43:08.193Z,17.26
2018-08-30T21:45:37.653Z,17.26
2018-08-30T21:48:06.112Z,17.25
2018-08-30T21:50:48.337Z,17.19
2018-08-30T21:53:17.434Z,17.18
2018-08-30T21:55:46.950Z,17.20
2018-08-30T21:58:16.205Z,17.20
2018-08-30T22:00:45.355Z,17.19
2018-08-30T22:03:20.068Z,17.16
2018-08-30T22:05:54.269Z,17.15
2018-08-30T22:08:23.232Z,17.12
2018-08-30T22:10:52.533Z,17.16
2018-08-30T22:13:22.857Z,17.13
2018-08-30T22:15:52.092Z,17.13
2018-08-30T22:18:21.786Z,17.06
2018-08-30T22:20:51.462Z,17.01
2018-08-30T22:23:20.919Z,16.98
2018-08-30T22:25:50.006Z,16.96
2018-08-30T22:28:18.763Z,17.03
2018-08-30T22:30:48.198Z,17.12
2018-08-30T22:33:18.181Z,17.07
2018-08-30T22:35:47.103Z,17.04
2018-08-30T22:38:15.888Z,16.99
2018-08-30T22:40:45.309Z,17.01
2018-08-30T22:43:14.168Z,17.01
2018-08-30T22:45:42.672Z,17.03
2018-08-30T22:48:11.546Z,17.03
2018-08-30T22:50:40.701Z,17.04
2018-08-30T22:53:10.356Z,17.04
2018-08-30T22:55:39.720Z,17.04
2018-08-30T22:58:08.609Z,16.99
2018-08-30T23:00:37.120Z,16.96
2018-08-30T23:03:05.668Z,16.91
2018-08-30T23:05:34.148Z,16.81
2018-08-30T23:08:02.626Z,16.71
2018-08-30T23:10:31.255Z,16.57
2018-08-30T23:12:59.734Z,16.52
2018-08-30T23:15:28.212Z,16.56
2018-08-30T23:17:56.621Z,16.57
2018-08-30T23:20:25.100Z,16.62
2018-08-30T23:22:53.629Z,16.65
2018-08-30T23:25:22.195Z,16.68
2018-08-30T23:27:50.566Z,16.66
2018-08-30T23:30:19.060Z,16.67
2018-08-30T23:32:47.524Z,16.73
2018-08-30T23:35:15.962Z,16.77
2018-08-30T23:37:45.128Z,16.82
2018-08-30T23:40:13.605Z,16.79
2018-08-30T23:42:42.937Z,16.80
2018-08-30T23:45:11.400Z,16.78
2018-08-30T23:47:39.839Z,16.80
2018-08-30T23:50:08.314Z,16.83
2018-08-30T23:52:36.935Z,16.86
2018-08-30T23:55:05.544Z,16.81
2018-08-30T23:57:34.029Z,16.72
